This is the latest recevied weather packets stored in our database for station/object WC0AA-WX. If no packets are shown the sender has not sent any weather packets the latest 10 day(s).
| Time | Temp. | Humidity | Pressure | Rain* | Wind** | Luminosity | Snow |
|---|---|---|---|---|---|---|---|
| 1778081999 | 11.11° C | 42% | 1019.9 hPa | 0 mm | - | - | - |
| 1778081398 | 11.11° C | 43% | 1019.9 hPa | 0 mm | - | - | - |
| 1778079595 | 10° C | 48% | 1019.7 hPa | 0 mm | - | - | - |
| 1778075389 | 8.89° C | 54% | 1019.2 hPa | 0 mm | - | - | - |
| 1778073586 | 8.89° C | 58% | 1018.9 hPa | 0 mm | - | - | - |
| 1778072985 | 8.89° C | 58% | 1018.6 hPa | 0 mm | - | - | - |
| 1778072384 | 8.33° C | 59% | 1018.5 hPa | 0 mm | - | - | - |
| 1778071182 | 7.78° C | 61% | 1018.2 hPa | 0 mm | - | - | - |
| 1778070581 | 7.22° C | 63% | 1017.8 hPa | 0 mm | - | - | - |
| 1778069980 | 7.22° C | 66% | 1017.6 hPa | 0 mm | - | - | - |
| 1778069379 | 6.67° C | 66% | 1017.4 hPa | 0 mm | - | - | - |
| 1778068778 | 6.67° C | 66% | 1017.4 hPa | 0 mm | - | - | - |
| 1778068177 | 6.67° C | 64% | 1017.2 hPa | 0 mm | - | - | - |
| 1778066975 | 7.22° C | 62% | 1017 hPa | 0 mm | - | - | - |
| 1778065173 | 7.22° C | 62% | 1016.8 hPa | 0 mm | - | - | - |
| 1778064572 | 7.22° C | 61% | 1016.9 hPa | 0 mm | - | - | - |
| 1778063371 | 7.78° C | 59% | 1016.9 hPa | 0 mm | - | - | - |
| 1778062168 | 7.78° C | 60% | 1016.7 hPa | 0 mm | - | - | - |
| 1778060365 | 7.78° C | 63% | 1016.7 hPa | 0 mm | - | - | - |
| 1778059764 | 7.78° C | 63% | 1016.4 hPa | 0 mm | - | - | - |
| 1778059163 | 7.78° C | 64% | 1016.2 hPa | 0 mm | - | - | - |
| 1778058562 | 7.78° C | 66% | 1016 hPa | 0 mm | - | - | - |
| 1778057361 | 7.78° C | 61% | 1016.3 hPa | 0 mm | - | - | - |
| 1778056759 | 7.78° C | 60% | 1016 hPa | 0 mm | - | - | - |
| 1778056158 | 7.78° C | 63% | 1016 hPa | 0 mm | - | - | - |
* Rain latest hour (hover to see other rain measurements)
** Current wind speed in m/s (hover to see current wind gust speed)